Weather at Martin Fierro Airport [CLOSED]

Public forecast

Using degrees Fahrenheit for public forecast. Weather courtesy of forecast.io.

Closest aviation weather report (METAR) to Martin Fierro Airport

Closest report is Platteville Municipal Airport, 8.7 nm (16.1 km) SE. Retrieved 2021/06/13 10:35 UTC (21 minutes ago):

KPVB 131035Z AUTO 35005KT 10SM CLR 15/12 A3003 RMK AO1 T01470118

Closest aviation forecast (TAF) to Martin Fierro Airport

Closest forecast is Dubuque Regional Airport, 24.7 nm (45.7 km) SSW. Retrieved 2021/06/13 06:22 UTC (5 hours ago):

TAF KDBQ 130520Z 1306/1406 34005KT P6SM SKC FM140200 23005KT P6SM SKC